Chikyu — JRAJ — position and weather

sailwx.info

Track history (hours):
 
Tides and Currents Weather Stations Pressure Air Temp Water Temp Dewpoint Dewpoint Depression Visibility Wind Speed Wind Dir Waves Ship Positions

Oceanographic research ship Chikyu (Japan)

Last reported at 2020-Sep-25 23:28 UTC. Time now 2020-Sep-27 07:53 UTC.
Position N 35°02' E 138°31'.

Length 210 m; beam 38 m.

Type: Other ship. MMSI: 432522000.

Date/timePositionNaut miles runAvg speedWind from/ knotsBaromVisibWave heightAir tempDewpointWater temp
2020-Sep-25 23:28N 35°02' E 138°31'0 0.0
2020-Sep-25 20:28N 35°02' E 138°31'0 0.0
2020-Sep-25 19:28N 35°02' E 138°31'0 0.0
2020-Sep-25 14:28N 35°02' E 138°31'0 0.0
2020-Sep-25 13:58N 35°02' E 138°31'0 0.0
2020-Sep-25 13:28N 35°02' E 138°31'5 0.2
2020-Sep-24 07:30N 35°03' E 138°37'0 0.1
2020-Sep-24 06:31N 35°03' E 138°37'0 0.1
2020-Sep-24 05:31N 35°03' E 138°37'10 0.4
2020-Sep-23 02:00N 35°03' E 138°50'0 0.0
2020-Sep-22 23:00N 35°03' E 138°50'0 0.0
2020-Sep-22 16:30N 35°03' E 138°50'0 0.0
2020-Sep-22 16:00N 35°03' E 138°50'0 0.0
2020-Sep-22 15:30N 35°03' E 138°50'0 0.0
2020-Sep-22 12:00N 35°03' E 138°50'5 4.7
2020-Sep-22 11:00N 35°04' E 138°44'5 4.6
2020-Sep-22 10:00N 35°03' E 138°39'0 0.3
2020-Sep-22 09:30N 35°03' E 138°39'6 3.9
2020-Sep-22 08:00N 35°02' E 138°32'1 2.0
2020-Sep-22 07:30N 35°02' E 138°31'0 0.0
2020-Sep-22 07:00N 35°02' E 138°31'0 0.0
2020-Sep-22 05:00N 35°02' E 138°31'0 0.0
2020-Sep-22 04:00N 35°02' E 138°31'0 0.0
2020-Sep-22 03:30N 35°02' E 138°31'0 0.0
2020-Sep-21 23:00N 35°02' E 138°31'0 0.0
2020-Sep-21 22:00N 35°02' E 138°31'0 0.0
2020-Sep-21 21:30N 35°02' E 138°31'0 0.0
2020-Sep-21 20:30N 35°02' E 138°31'0 0.0
2020-Sep-21 17:30N 35°02' E 138°31'0 0.0
2020-Sep-21 16:00N 35°02' E 138°31'0 0.0
2020-Sep-21 14:00N 35°02' E 138°31'0 0.0
2020-Sep-21 10:30N 35°02' E 138°31'0 0.0
2020-Sep-21 08:30N 35°02' E 138°31'0 0.0
2020-Sep-21 07:30N 35°02' E 138°31'0 0.0
2020-Sep-21 05:30N 35°02' E 138°31'0 0.0
2020-Sep-21 01:30N 35°02' E 138°31'0 0.0
2020-Sep-21 00:30N 35°02' E 138°31'0 0.0
2020-Sep-20 23:30N 35°02' E 138°31'0 0.0
2020-Sep-20 19:30N 35°02' E 138°31'0 0.0
2020-Sep-20 19:00N 35°02' E 138°31'0 0.0
2020-Sep-20 18:00N 35°02' E 138°31'0 0.0
2020-Sep-20 17:30N 35°02' E 138°31'0 0.0
2020-Sep-20 17:00N 35°02' E 138°31'0 0.0
2020-Sep-20 16:30N 35°02' E 138°31'0 0.0
2020-Sep-20 16:00N 35°02' E 138°31'0 0.0
2020-Sep-20 14:30N 35°02' E 138°31'0 0.0
2020-Sep-20 12:30N 35°02' E 138°31'0 0.0
2020-Sep-20 11:57N 35°02' E 138°31'0 0.0
2020-Sep-20 11:30N 35°02' E 138°31'0 0.0
2020-Sep-20 10:30N 35°02' E 138°31'0 0.0
2020-Sep-20 08:30N 35°02' E 138°31'0 0.0
2020-Sep-20 07:00N 35°02' E 138°31'0 0.0
2020-Sep-20 06:00N 35°02' E 138°31'0 0.0
2020-Sep-20 00:00N 35°02' E 138°31'0 0.0
2020-Sep-19 20:30N 35°02' E 138°31'0 0.0
2020-Sep-19 19:00N 35°02' E 138°31'0 0.0
2020-Sep-19 17:30N 35°02' E 138°31'0 0.0
2020-Sep-19 16:30N 35°02' E 138°31'0 0.0
2020-Sep-19 14:00N 35°02' E 138°31'0 0.0
2020-Sep-19 11:00N 35°02' E 138°31'0 0.0
2020-Sep-19 10:00N 35°02' E 138°31'0 0.0
2020-Sep-19 07:27N 35°02' E 138°31'0 0.0
2020-Sep-19 07:00N 35°02' E 138°31'0 0.0
2020-Sep-19 05:00N 35°02' E 138°31'0 0.0
2020-Sep-19 04:30N 35°02' E 138°31'0 0.2
2020-Sep-19 02:30N 35°02' E 138°31'5 4.6
2020-Sep-19 01:30N 35°03' E 138°36'1 0.3
2020-Sep-18 23:30N 35°03' E 138°37'0 0.1
2020-Sep-18 22:30N 35°03' E 138°37'0 0.0
2020-Sep-18 20:00N 35°03' E 138°37'0 0.1
2020-Sep-18 19:00N 35°03' E 138°37'0 0.1
2020-Sep-18 18:00N 35°03' E 138°37'0 0.0
2020-Sep-18 15:00N 35°03' E 138°37'0 0.1
2020-Sep-18 13:30N 35°03' E 138°37'0 0.0
2020-Sep-18 10:30N 35°03' E 138°37'0 0.0
2020-Sep-18 07:30N 35°03' E 138°37'0 0.2
2020-Sep-18 07:00N 35°03' E 138°37'0 0.0
2020-Sep-18 05:00N 35°03' E 138°37'0 0.1
2020-Sep-18 03:00N 35°03' E 138°37'0 0.1
2020-Sep-18 01:30N 35°03' E 138°37'0 0.3
2020-Sep-18 01:00N 35°03' E 138°37'0 0.0
2020-Sep-17 08:00N 35°03' E 138°37'0 0.1
2020-Sep-17 07:17N 35°03' E 138°37'0 0.0
2020-Sep-17 07:00N 35°03' E 138°37'0 0.1
2020-Sep-17 06:30N 35°03' E 138°36'0 0.0
2020-Sep-17 03:30N 35°03' E 138°37'0 0.2
2020-Sep-17 03:00N 35°03' E 138°37'0 0.1
2020-Sep-17 01:30N 35°03' E 138°36'0 0.0
2020-Sep-17 01:00N 35°03' E 138°36'0 0.1
2020-Sep-17 00:30N 35°03' E 138°37'0 0.1
2020-Sep-17 00:00N 35°03' E 138°36'0 0.0
2020-Sep-16 20:30N 35°03' E 138°36'0 0.0
2020-Sep-16 18:30N 35°03' E 138°37'0 0.2
2020-Sep-16 18:00N 35°03' E 138°36'0 0.1
2020-Sep-16 17:00N 35°03' E 138°36'0 0.0
2020-Sep-16 16:30N 35°03' E 138°36'0 0.0
2020-Sep-16 12:00N 35°03' E 138°36'0 0.0
2020-Sep-16 07:00N 35°03' E 138°37'0 0.1
2020-Sep-16 05:00N 35°03' E 138°36'0 0.2
2020-Sep-16 04:30N 35°03' E 138°36'0 0.1
2020-Sep-16 04:00N 35°03' E 138°36'0 0.0
2020-Sep-16 03:00N 35°03' E 138°36'1 0.4
2020-Sep-16 00:00N 35°03' E 138°35'2 4.2
2020-Sep-15 23:30N 35°02' E 138°32'  
Track history (hours):
 
Tides and Currents Weather Stations Pressure Air Temp Water Temp Dewpoint Dewpoint Depression Visibility Wind Speed Wind Dir Waves Ship Positions

Oceanographic research ship Chikyu (Japan)

Last reported at 2020-Sep-25 23:28 UTC. Time now 2020-Sep-27 07:53 UTC.
Position N 35°02' E 138°31'.

Length 210 m; beam 38 m.

Type: Other ship. MMSI: 432522000.

Date/timePositionNaut miles runAvg speedWind from/ knotsBaromVisibWave heightAir tempDewpointWater temp
2020-Sep-25 23:28N 35°02' E 138°31'0 0.0
2020-Sep-25 20:28N 35°02' E 138°31'0 0.0
2020-Sep-25 19:28N 35°02' E 138°31'0 0.0
2020-Sep-25 14:28N 35°02' E 138°31'0 0.0
2020-Sep-25 13:58N 35°02' E 138°31'0 0.0
2020-Sep-25 13:28N 35°02' E 138°31'5 0.2
2020-Sep-24 07:30N 35°03' E 138°37'0 0.1
2020-Sep-24 06:31N 35°03' E 138°37'0 0.1
2020-Sep-24 05:31N 35°03' E 138°37'10 0.4
2020-Sep-23 02:00N 35°03' E 138°50'0 0.0
2020-Sep-22 23:00N 35°03' E 138°50'0 0.0
2020-Sep-22 16:30N 35°03' E 138°50'0 0.0
2020-Sep-22 16:00N 35°03' E 138°50'0 0.0
2020-Sep-22 15:30N 35°03' E 138°50'0 0.0
2020-Sep-22 12:00N 35°03' E 138°50'5 4.7
2020-Sep-22 11:00N 35°04' E 138°44'5 4.6
2020-Sep-22 10:00N 35°03' E 138°39'0 0.3
2020-Sep-22 09:30N 35°03' E 138°39'6 3.9
2020-Sep-22 08:00N 35°02' E 138°32'1 2.0
2020-Sep-22 07:30N 35°02' E 138°31'0 0.0
2020-Sep-22 07:00N 35°02' E 138°31'0 0.0
2020-Sep-22 05:00N 35°02' E 138°31'0 0.0
2020-Sep-22 04:00N 35°02' E 138°31'0 0.0
2020-Sep-22 03:30N 35°02' E 138°31'0 0.0
2020-Sep-21 23:00N 35°02' E 138°31'0 0.0
2020-Sep-21 22:00N 35°02' E 138°31'0 0.0
2020-Sep-21 21:30N 35°02' E 138°31'0 0.0
2020-Sep-21 20:30N 35°02' E 138°31'0 0.0
2020-Sep-21 17:30N 35°02' E 138°31'0 0.0
2020-Sep-21 16:00N 35°02' E 138°31'0 0.0
2020-Sep-21 14:00N 35°02' E 138°31'0 0.0
2020-Sep-21 10:30N 35°02' E 138°31'0 0.0
2020-Sep-21 08:30N 35°02' E 138°31'0 0.0
2020-Sep-21 07:30N 35°02' E 138°31'0 0.0
2020-Sep-21 05:30N 35°02' E 138°31'0 0.0
2020-Sep-21 01:30N 35°02' E 138°31'0 0.0
2020-Sep-21 00:30N 35°02' E 138°31'0 0.0
2020-Sep-20 23:30N 35°02' E 138°31'0 0.0
2020-Sep-20 19:30N 35°02' E 138°31'0 0.0
2020-Sep-20 19:00N 35°02' E 138°31'0 0.0
2020-Sep-20 18:00N 35°02' E 138°31'0 0.0
2020-Sep-20 17:30N 35°02' E 138°31'0 0.0
2020-Sep-20 17:00N 35°02' E 138°31'0 0.0
2020-Sep-20 16:30N 35°02' E 138°31'0 0.0
2020-Sep-20 16:00N 35°02' E 138°31'0 0.0
2020-Sep-20 14:30N 35°02' E 138°31'0 0.0
2020-Sep-20 12:30N 35°02' E 138°31'0 0.0
2020-Sep-20 11:57N 35°02' E 138°31'0 0.0
2020-Sep-20 11:30N 35°02' E 138°31'0 0.0
2020-Sep-20 10:30N 35°02' E 138°31'0 0.0
2020-Sep-20 08:30N 35°02' E 138°31'0 0.0
2020-Sep-20 07:00N 35°02' E 138°31'0 0.0
2020-Sep-20 06:00N 35°02' E 138°31'0 0.0
2020-Sep-20 00:00N 35°02' E 138°31'0 0.0
2020-Sep-19 20:30N 35°02' E 138°31'0 0.0
2020-Sep-19 19:00N 35°02' E 138°31'0 0.0
2020-Sep-19 17:30N 35°02' E 138°31'0 0.0
2020-Sep-19 16:30N 35°02' E 138°31'0 0.0
2020-Sep-19 14:00N 35°02' E 138°31'0 0.0
2020-Sep-19 11:00N 35°02' E 138°31'0 0.0
2020-Sep-19 10:00N 35°02' E 138°31'0 0.0
2020-Sep-19 07:27N 35°02' E 138°31'0 0.0
2020-Sep-19 07:00N 35°02' E 138°31'0 0.0
2020-Sep-19 05:00N 35°02' E 138°31'0 0.0
2020-Sep-19 04:30N 35°02' E 138°31'0 0.2
2020-Sep-19 02:30N 35°02' E 138°31'5 4.6
2020-Sep-19 01:30N 35°03' E 138°36'1 0.3
2020-Sep-18 23:30N 35°03' E 138°37'0 0.1
2020-Sep-18 22:30N 35°03' E 138°37'0 0.0
2020-Sep-18 20:00N 35°03' E 138°37'0 0.1
2020-Sep-18 19:00N 35°03' E 138°37'0 0.1
2020-Sep-18 18:00N 35°03' E 138°37'0 0.0
2020-Sep-18 15:00N 35°03' E 138°37'0 0.1
2020-Sep-18 13:30N 35°03' E 138°37'0 0.0
2020-Sep-18 10:30N 35°03' E 138°37'0 0.0
2020-Sep-18 07:30N 35°03' E 138°37'0 0.2
2020-Sep-18 07:00N 35°03' E 138°37'0 0.0
2020-Sep-18 05:00N 35°03' E 138°37'0 0.1
2020-Sep-18 03:00N 35°03' E 138°37'0 0.1
2020-Sep-18 01:30N 35°03' E 138°37'0 0.3
2020-Sep-18 01:00N 35°03' E 138°37'0 0.0
2020-Sep-17 08:00N 35°03' E 138°37'0 0.1
2020-Sep-17 07:17N 35°03' E 138°37'0 0.0
2020-Sep-17 07:00N 35°03' E 138°37'0 0.1
2020-Sep-17 06:30N 35°03' E 138°36'0 0.0
2020-Sep-17 03:30N 35°03' E 138°37'0 0.2
2020-Sep-17 03:00N 35°03' E 138°37'0 0.1
2020-Sep-17 01:30N 35°03' E 138°36'0 0.0
2020-Sep-17 01:00N 35°03' E 138°36'0 0.1
2020-Sep-17 00:30N 35°03' E 138°37'0 0.1
2020-Sep-17 00:00N 35°03' E 138°36'0 0.0
2020-Sep-16 20:30N 35°03' E 138°36'0 0.0
2020-Sep-16 18:30N 35°03' E 138°37'0 0.2
2020-Sep-16 18:00N 35°03' E 138°36'0 0.1
2020-Sep-16 17:00N 35°03' E 138°36'0 0.0
2020-Sep-16 16:30N 35°03' E 138°36'0 0.0
2020-Sep-16 12:00N 35°03' E 138°36'0 0.0
2020-Sep-16 07:00N 35°03' E 138°37'0 0.1
2020-Sep-16 05:00N 35°03' E 138°36'0 0.2
2020-Sep-16 04:30N 35°03' E 138°36'0 0.1
2020-Sep-16 04:00N 35°03' E 138°36'0 0.0
2020-Sep-16 03:00N 35°03' E 138°36'1 0.4
2020-Sep-16 00:00N 35°03' E 138°35'2 4.2
2020-Sep-15 23:30N 35°02' E 138°32'  

Dump ship's entire track history